Time;durP1;ratioP1;P1;durP2;ratioP2;P2;SDS_P1;SDS_P2;PMS_P1;PMS_P2;Temp;Humidity;BMP_temperature;BMP_pressure;BME280_temperature;BME280_humidity;BME280_pressure;Samples;Min_cycle;Max_cycle;Signal;HPM_P1;HPM_P2
2023/12/22 07:23:44;;;;;;;;;1.33;1.00;;;;;;;;5464037;22;45257;-76
2023/12/22 07:26:09;;;;;;;;;0.00;0.00;;;;;;;;5036875;28;45513;-76
2023/12/22 07:28:34;;;;;;;;;0.33;0.00;;;;;;;;5027780;28;45854;-78
2023/12/22 07:30:59;;;;;;;;;1.67;0.00;;;;;;;;5039839;28;45217;-78
2023/12/22 07:33:24;;;;;;;;;0.00;0.00;;;;;;;;5035256;28;45303;-78
2023/12/22 07:35:50;;;;;;;;;1.33;0.00;;;;;;;;5035764;28;45389;-77
2023/12/22 07:38:15;;;;;;;;;0.00;0.00;;;;;;;;5037500;28;45195;-77
2023/12/22 07:40:40;;;;;;;;;1.00;0.00;;;;;;;;5039842;28;45497;-77
2023/12/22 07:43:05;;;;;;;;;1.00;0.33;;;;;;;;5029544;28;45232;-77
2023/12/22 07:45:30;;;;;;;;;2.67;1.00;;;;;;;;5037890;28;45786;-77
2023/12/22 07:47:56;;;;;;;;;3.33;1.67;;;;;;;;5036647;28;46459;-77
2023/12/22 07:50:21;;;;;;;;;4.00;2.67;;;;;;;;5039505;28;45354;-78
2023/12/22 07:52:46;;;;;;;;;3.00;3.00;;;;;;;;5035804;28;45175;-77
2023/12/22 07:55:11;;;;;;;;;6.33;4.33;;;;;;;;5039516;28;45225;-76
2023/12/22 07:57:37;;;;;;;;;1.67;1.00;;;;;;;;5037149;28;45387;-75
2023/12/22 08:00:03;;;;;;;;;4.00;4.00;;;;;;;;5039467;28;45267;-80
2023/12/22 08:02:28;;;;;;;;;4.00;3.00;;;;;;;;5036094;28;45262;-76
2023/12/22 08:04:53;;;;;;;;;1.00;1.00;;;;;;;;5032719;28;45226;-77
2023/12/22 08:07:18;;;;;;;;;6.67;1.00;;;;;;;;5037413;28;47080;-76
2023/12/22 08:09:44;;;;;;;;;3.00;2.00;;;;;;;;5038150;28;45163;-72
2023/12/22 08:12:09;;;;;;;;;0.67;0.67;;;;;;;;5038070;28;45359;-75
2023/12/22 08:14:34;;;;;;;;;1.00;1.00;;;;;;;;5037320;28;45643;-76
2023/12/22 08:16:59;;;;;;;;;2.00;0.33;;;;;;;;5034912;28;46872;-75
2023/12/22 08:19:25;;;;;;;;;0.00;0.00;;;;;;;;5035965;28;45727;-76
2023/12/22 08:21:52;;;;;;;;;0.33;0.33;;;;;;;;5037005;28;45472;-77
2023/12/22 08:24:17;;;;;;;;;0.00;0.00;;;;;;;;5030749;28;45489;-76
2023/12/22 08:26:42;;;;;;;;;2.00;1.00;;;;;;;;5038423;28;45397;-76
2023/12/22 08:29:08;;;;;;;;;1.67;1.00;;;;;;;;5028479;28;44853;-77
2023/12/22 08:31:33;;;;;;;;;1.67;1.67;;;;;;;;5039522;28;45461;-76
2023/12/22 08:33:58;;;;;;;;;2.67;1.00;;;;;;;;5051971;28;45436;-77
2023/12/22 08:36:23;;;;;;;;;1.00;1.00;;;;;;;;5042912;28;45327;-76
2023/12/22 08:38:49;;;;;;;;;1.00;1.00;;;;;;;;5033448;28;45822;-78
2023/12/22 08:41:14;;;;;;;;;1.00;0.00;;;;;;;;5043336;28;45361;-76
2023/12/22 08:43:39;;;;;;;;;1.00;1.00;;;;;;;;5032014;28;45842;-77
2023/12/22 08:46:05;;;;;;;;;0.67;0.00;;;;;;;;5043111;28;45626;-77
2023/12/22 08:48:30;;;;;;;;;2.33;2.00;;;;;;;;5036208;28;45442;-76
2023/12/22 08:50:55;;;;;;;;;2.00;2.00;;;;;;;;5043020;28;45374;-78
2023/12/22 08:53:20;;;;;;;;;1.00;1.00;;;;;;;;5036025;28;45379;-77
2023/12/22 08:55:45;;;;;;;;;2.33;1.00;;;;;;;;5042245;28;46963;-77
2023/12/22 08:58:11;;;;;;;;;5.33;1.00;;;;;;;;5038444;28;45287;-77
2023/12/22 09:00:36;;;;;;;;;1.33;1.00;;;;;;;;5040564;28;45207;-77
2023/12/22 09:03:02;;;;;;;;;0.67;0.33;;;;;;;;5032084;28;45409;-75
2023/12/22 09:05:27;;;;;;;;;1.00;1.00;;;;;;;;5038879;28;45379;-78
2023/12/22 09:07:52;;;;;;;;;2.00;1.00;;;;;;;;5034425;28;45070;-78
2023/12/22 09:10:18;;;;;;;;;0.00;0.00;;;;;;;;5040492;28;45303;-78
2023/12/22 09:12:44;;;;;;;;;4.00;2.00;;;;;;;;5037818;28;45299;-77
2023/12/22 09:15:09;;;;;;;;;1.00;1.00;;;;;;;;5038593;28;45188;-77
2023/12/22 09:17:34;;;;;;;;;2.67;0.67;;;;;;;;5038893;28;45398;-77
2023/12/22 09:19:59;;;;;;;;;0.00;0.00;;;;;;;;5040461;28;45741;-77
2023/12/22 09:22:24;;;;;;;;;1.00;0.33;;;;;;;;5038813;28;45322;-77
2023/12/22 09:24:50;;;;;;;;;2.00;1.00;;;;;;;;5040407;28;45746;-76
2023/12/22 09:27:15;;;;;;;;;1.00;1.00;;;;;;;;5037267;28;45391;-77
2023/12/22 09:29:40;;;;;;;;;0.33;0.33;;;;;;;;5040648;28;45340;-77
2023/12/22 09:32:05;;;;;;;;;0.00;0.00;;;;;;;;5039184;28;45638;-77
2023/12/22 09:34:30;;;;;;;;;2.00;1.00;;;;;;;;5031936;28;46187;-77
2023/12/22 09:36:56;;;;;;;;;2.00;1.00;;;;;;;;5040159;28;45349;-77
2023/12/22 09:39:21;;;;;;;;;1.67;0.00;;;;;;;;5047581;28;45276;-76
2023/12/22 09:41:50;;;;;;;;;2.33;1.00;;;;;;;;5040498;28;45638;-77
2023/12/22 09:44:18;;;;;;;;;1.00;1.00;;;;;;;;5033211;28;47107;-76
2023/12/22 09:46:43;;;;;;;;;1.00;1.00;;;;;;;;5040865;28;45451;-76
2023/12/22 09:49:08;;;;;;;;;1.00;1.00;;;;;;;;5033953;28;45355;-75
2023/12/22 09:51:34;;;;;;;;;1.00;1.00;;;;;;;;5040536;28;45501;-75
2023/12/22 09:54:00;;;;;;;;;2.00;0.00;;;;;;;;5035046;28;45902;-75
2023/12/22 09:56:26;;;;;;;;;0.33;0.33;;;;;;;;5038863;28;45336;-75
2023/12/22 09:58:51;;;;;;;;;0.67;0.00;;;;;;;;5033315;28;45423;-74
2023/12/22 10:01:21;;;;;;;;;0.00;0.00;;;;;;;;5042873;28;45331;-74
2023/12/22 10:03:46;;;;;;;;;1.00;1.00;;;;;;;;5035594;28;45423;-75
2023/12/22 10:06:11;;;;;;;;;2.67;0.00;;;;;;;;5042060;28;45346;-75
2023/12/22 10:08:38;;;;;;;;;2.67;1.00;;;;;;;;5035549;28;45347;-75
2023/12/22 10:11:04;;;;;;;;;3.00;1.00;;;;;;;;5028772;28;45925;-75
2023/12/22 10:13:31;;;;;;;;;0.00;0.00;;;;;;;;5026939;28;46914;-75
2023/12/22 10:15:56;;;;;;;;;1.00;1.00;;;;;;;;5038009;28;45476;-75
2023/12/22 10:18:21;;;;;;;;;2.33;1.00;;;;;;;;5034430;28;45393;-72
2023/12/22 10:20:47;;;;;;;;;5.33;4.00;;;;;;;;5038017;28;45450;-74
2023/12/22 10:23:12;;;;;;;;;1.00;1.00;;;;;;;;5034391;28;46461;-75
2023/12/22 10:25:39;;;;;;;;;2.67;1.33;;;;;;;;5040145;28;45287;-75
2023/12/22 10:28:05;;;;;;;;;2.33;2.33;;;;;;;;5037349;28;45331;-75
2023/12/22 10:30:32;;;;;;;;;2.00;2.00;;;;;;;;5055602;28;46798;-74
2023/12/22 10:32:57;;;;;;;;;2.00;1.00;;;;;;;;5033286;28;47219;-75
2023/12/22 10:35:22;;;;;;;;;0.67;0.67;;;;;;;;5039930;28;45229;-73
2023/12/22 10:37:48;;;;;;;;;1.67;1.00;;;;;;;;5038185;28;45134;-74
2023/12/22 10:40:13;;;;;;;;;3.00;2.00;;;;;;;;5054976;28;45871;-74
2023/12/22 10:42:40;;;;;;;;;4.00;1.67;;;;;;;;5035053;28;46344;-74
2023/12/22 10:45:06;;;;;;;;;3.67;1.33;;;;;;;;5028044;28;45368;-74
2023/12/22 10:47:31;;;;;;;;;3.33;2.00;;;;;;;;5035984;28;45699;-74
2023/12/22 10:49:56;;;;;;;;;0.00;0.00;;;;;;;;5036956;28;45960;-74
2023/12/22 10:52:23;;;;;;;;;1.67;1.67;;;;;;;;5052129;28;48070;-74
2023/12/22 10:54:48;;;;;;;;;2.67;2.67;;;;;;;;5033506;28;45383;-74
2023/12/22 10:57:17;;;;;;;;;4.67;1.00;;;;;;;;5036904;28;45628;-74
2023/12/22 10:59:46;;;;;;;;;4.00;2.00;;;;;;;;5035333;28;45680;-75
2023/12/22 11:02:15;;;;;;;;;3.00;1.00;;;;;;;;5036648;28;45438;-75
2023/12/22 11:04:41;;;;;;;;;7.00;3.00;;;;;;;;5027021;28;45328;-75
2023/12/22 11:07:09;;;;;;;;;3.00;2.00;;;;;;;;5045068;28;45386;-74
2023/12/22 11:09:35;;;;;;;;;4.33;4.33;;;;;;;;5024044;28;45434;-76
2023/12/22 11:12:00;;;;;;;;;2.00;2.00;;;;;;;;5038708;28;46043;-76
2023/12/22 11:14:26;;;;;;;;;5.67;2.33;;;;;;;;5050336;28;46799;-76
2023/12/22 11:16:53;;;;;;;;;5.67;5.00;;;;;;;;5039740;28;45446;-75
2023/12/22 11:19:20;;;;;;;;;5.67;2.00;;;;;;;;5051209;28;46172;-76
2023/12/22 11:21:46;;;;;;;;;3.00;2.00;;;;;;;;5053233;28;46971;-76
2023/12/22 11:24:13;;;;;;;;;4.00;3.00;;;;;;;;5034787;28;45518;-76
2023/12/22 11:26:40;;;;;;;;;3.00;2.00;;;;;;;;5038602;28;45602;-75
2023/12/22 11:29:07;;;;;;;;;2.67;2.00;;;;;;;;5037262;28;45438;-75
2023/12/22 11:31:32;;;;;;;;;5.33;2.67;;;;;;;;5038980;28;45192;-75
2023/12/22 11:33:59;;;;;;;;;2.33;1.00;;;;;;;;5036815;28;45279;-74
2023/12/22 11:36:24;;;;;;;;;3.00;1.33;;;;;;;;5039810;28;45534;-75
2023/12/22 11:38:49;;;;;;;;;2.00;1.00;;;;;;;;5036177;28;45384;-74
2023/12/22 11:41:20;;;;;;;;;5.00;1.67;;;;;;;;5039504;28;45318;-76
2023/12/22 11:43:46;;;;;;;;;1.00;1.00;;;;;;;;5033217;28;45431;-76
2023/12/22 11:46:11;;;;;;;;;3.67;1.00;;;;;;;;5039480;28;45260;-76
2023/12/22 11:48:37;;;;;;;;;2.67;2.33;;;;;;;;5032163;28;45639;-76
2023/12/22 11:51:11;;;;;;;;;5.33;3.00;;;;;;;;5039267;28;45312;-76
2023/12/22 11:53:37;;;;;;;;;2.67;1.00;;;;;;;;5034897;28;45410;-76
2023/12/22 11:56:08;;;;;;;;;4.00;2.33;;;;;;;;5038189;28;45469;-75
2023/12/22 11:58:37;;;;;;;;;5.00;2.00;;;;;;;;5051376;28;46339;-75
2023/12/22 12:01:04;;;;;;;;;5.67;3.00;;;;;;;;5036755;28;48076;-75
2023/12/22 12:03:31;;;;;;;;;4.00;1.00;;;;;;;;5035009;28;45320;-75
2023/12/22 12:06:10;;;;;;;;;6.00;3.00;;;;;;;;5037491;28;45267;-74
2023/12/22 12:08:35;;;;;;;;;3.00;2.00;;;;;;;;5032537;28;45398;-74
2023/12/22 12:11:03;;;;;;;;;4.00;3.00;;;;;;;;5037611;28;47266;-74
2023/12/22 12:13:28;;;;;;;;;4.67;2.00;;;;;;;;5049258;28;45338;-75
2023/12/22 12:15:55;;;;;;;;;4.00;2.00;;;;;;;;5037634;28;45339;-74
2023/12/22 12:18:24;;;;;;;;;9.00;3.67;;;;;;;;5035018;28;45488;-74
2023/12/22 12:20:49;;;;;;;;;5.00;3.00;;;;;;;;5052938;28;46590;-75
2023/12/22 12:23:17;;;;;;;;;4.67;3.67;;;;;;;;5034207;28;45275;-75
2023/12/22 12:25:43;;;;;;;;;5.00;4.00;;;;;;;;5037935;28;45421;-74
2023/12/22 12:28:08;;;;;;;;;10.00;3.67;;;;;;;;5052610;28;45361;-75
2023/12/22 12:30:35;;;;;;;;;4.00;1.67;;;;;;;;5038792;28;45437;-76
2023/12/22 12:33:07;;;;;;;;;7.33;3.33;;;;;;;;5032284;28;44774;-74
2023/12/22 12:35:35;;;;;;;;;11.67;7.67;;;;;;;;5036510;28;45249;-76
2023/12/22 12:38:00;;;;;;;;;10.67;6.00;;;;;;;;5037543;28;45715;-77
2023/12/22 12:40:29;;;;;;;;;4.33;2.00;;;;;;;;5039238;28;46283;-77
2023/12/22 12:42:54;;;;;;;;;6.33;5.00;;;;;;;;5033397;28;45328;-77
2023/12/22 12:45:23;;;;;;;;;11.67;5.00;;;;;;;;5029857;28;45637;-76
2023/12/22 12:47:58;;;;;;;;;6.00;5.00;;;;;;;;5033611;28;45564;-76
2023/12/22 12:50:24;;;;;;;;;10.00;7.00;;;;;;;;5043135;28;45323;-75
2023/12/22 12:52:49;;;;;;;;;9.67;6.00;;;;;;;;5033854;28;45367;-76
2023/12/22 12:55:17;;;;;;;;;5.33;3.00;;;;;;;;5028201;28;45470;-76
2023/12/22 12:57:42;;;;;;;;;10.00;7.67;;;;;;;;5033465;28;45467;-75
2023/12/22 13:00:08;;;;;;;;;8.00;6.00;;;;;;;;5025834;28;47338;-76
2023/12/22 13:02:35;;;;;;;;;6.00;4.33;;;;;;;;5036587;28;45236;-76
2023/12/22 13:05:03;;;;;;;;;8.00;4.33;;;;;;;;5034609;28;45280;-76
2023/12/22 13:07:29;;;;;;;;;3.00;2.00;;;;;;;;5034322;28;45465;-75
2023/12/22 13:09:56;;;;;;;;;3.67;3.00;;;;;;;;5035199;28;45884;-75
2023/12/22 13:12:22;;;;;;;;;7.00;3.00;;;;;;;;5035854;28;45294;-75
2023/12/22 13:14:47;;;;;;;;;10.33;3.67;;;;;;;;5028813;28;45323;-76
2023/12/22 13:17:12;;;;;;;;;7.67;4.00;;;;;;;;5035382;28;45335;-76
2023/12/22 13:19:37;;;;;;;;;6.33;5.00;;;;;;;;5032887;28;45656;-75
2023/12/22 13:22:03;;;;;;;;;11.00;4.00;;;;;;;;5038342;28;45681;-76
2023/12/22 13:24:28;;;;;;;;;4.33;3.33;;;;;;;;5051997;28;45394;-76
2023/12/22 13:27:01;;;;;;;;;3.67;2.00;;;;;;;;5039484;28;45243;-76
2023/12/22 13:29:26;;;;;;;;;3.67;1.33;;;;;;;;5038595;28;45305;-76
2023/12/22 13:31:51;;;;;;;;;4.67;3.33;;;;;;;;5038615;28;45536;-76
2023/12/22 13:34:16;;;;;;;;;5.00;3.33;;;;;;;;5034294;28;44808;-75
2023/12/22 13:36:42;;;;;;;;;5.67;2.67;;;;;;;;5041524;28;45227;-75
2023/12/22 13:39:07;;;;;;;;;6.00;4.00;;;;;;;;5034535;28;45221;-77
2023/12/22 13:41:45;;;;;;;;;5.33;3.00;;;;;;;;5039867;28;45311;-77
2023/12/22 13:44:11;;;;;;;;;3.00;2.00;;;;;;;;5038246;28;45454;-77
2023/12/22 13:46:40;;;;;;;;;4.00;2.33;;;;;;;;5039688;28;46170;-78
2023/12/22 13:49:06;;;;;;;;;1.00;1.00;;;;;;;;5033356;28;46209;-77
2023/12/22 13:51:41;;;;;;;;;2.00;2.00;;;;;;;;5049478;28;45406;-77
2023/12/22 13:54:06;;;;;;;;;7.00;4.67;;;;;;;;5047133;28;45292;-77
2023/12/22 13:56:40;;;;;;;;;3.67;2.00;;;;;;;;5034948;28;45678;-79
2023/12/22 13:59:05;;;;;;;;;5.33;2.00;;;;;;;;5037001;28;46935;-76
2023/12/22 14:01:30;;;;;;;;;3.00;1.67;;;;;;;;5035418;28;45524;-77
2023/12/22 14:03:57;;;;;;;;;4.67;2.00;;;;;;;;5038087;28;45359;-78
2023/12/22 14:06:23;;;;;;;;;3.67;2.00;;;;;;;;5041286;28;45412;-79
2023/12/22 14:08:48;;;;;;;;;3.00;2.00;;;;;;;;5034093;28;46506;-76
2023/12/22 14:11:13;;;;;;;;;3.33;1.33;;;;;;;;5039251;28;45327;-77
2023/12/22 14:13:40;;;;;;;;;1.33;1.33;;;;;;;;5035227;28;45509;-78
2023/12/22 14:16:06;;;;;;;;;2.00;1.67;;;;;;;;5040748;28;45485;-77
2023/12/22 14:18:31;;;;;;;;;3.00;1.00;;;;;;;;5035731;28;45379;-78
2023/12/22 14:20:56;;;;;;;;;3.00;0.00;;;;;;;;5040989;28;45358;-76
2023/12/22 14:23:22;;;;;;;;;2.33;1.00;;;;;;;;5032709;28;45393;-78
2023/12/22 14:25:47;;;;;;;;;3.00;3.00;;;;;;;;5037719;28;46350;-77
2023/12/22 14:28:13;;;;;;;;;1.00;1.00;;;;;;;;5037965;28;46133;-75
2023/12/22 14:30:38;;;;;;;;;2.67;1.67;;;;;;;;5040545;28;45478;-77
2023/12/22 14:33:03;;;;;;;;;3.67;2.33;;;;;;;;5039618;28;45664;-76
2023/12/22 14:35:28;;;;;;;;;6.00;2.00;;;;;;;;5034855;28;44840;-77
2023/12/22 14:37:54;;;;;;;;;4.00;2.00;;;;;;;;5038377;28;48306;-77
2023/12/22 14:40:19;;;;;;;;;1.67;1.00;;;;;;;;5036768;28;45390;-77
2023/12/22 14:42:44;;;;;;;;;8.00;2.00;;;;;;;;5033885;28;45448;-76
2023/12/22 14:45:09;;;;;;;;;4.00;3.00;;;;;;;;5037675;28;45634;-77
2023/12/22 14:47:35;;;;;;;;;4.00;2.00;;;;;;;;5037264;28;47202;-77
2023/12/22 14:50:03;;;;;;;;;3.00;2.33;;;;;;;;5036331;28;45455;-77
2023/12/22 14:52:29;;;;;;;;;4.00;1.67;;;;;;;;5035893;28;45191;-77
2023/12/22 14:54:54;;;;;;;;;6.33;2.33;;;;;;;;5037368;28;46715;-79
2023/12/22 14:57:20;;;;;;;;;4.00;4.00;;;;;;;;5053628;28;48043;-78
2023/12/22 14:59:45;;;;;;;;;6.33;2.00;;;;;;;;5038287;28;45375;-77
2023/12/22 15:02:11;;;;;;;;;3.00;2.00;;;;;;;;5033844;28;45310;-78
2023/12/22 15:04:36;;;;;;;;;6.00;3.00;;;;;;;;5039012;28;45291;-78
2023/12/22 15:07:02;;;;;;;;;7.67;2.00;;;;;;;;5039574;28;46338;-77
2023/12/22 15:09:27;;;;;;;;;7.67;3.33;;;;;;;;5048281;28;45333;-77
2023/12/22 15:11:54;;;;;;;;;4.33;2.00;;;;;;;;5055339;28;45335;-78
2023/12/22 15:14:20;;;;;;;;;3.00;2.00;;;;;;;;5036030;28;45303;-78
2023/12/22 15:16:46;;;;;;;;;9.67;5.00;;;;;;;;5040445;28;45397;-77
2023/12/22 15:19:12;;;;;;;;;7.67;4.67;;;;;;;;5038876;28;45280;-74
2023/12/22 15:21:37;;;;;;;;;6.00;4.67;;;;;;;;5040428;28;45336;-74
2023/12/22 15:24:03;;;;;;;;;2.33;2.33;;;;;;;;5034931;28;45615;-74
2023/12/22 15:26:28;;;;;;;;;6.67;4.00;;;;;;;;5039081;28;45228;-75
2023/12/22 15:28:53;;;;;;;;;3.67;1.00;;;;;;;;5034694;28;45485;-75
2023/12/22 15:31:19;;;;;;;;;6.00;4.33;;;;;;;;5039099;28;45154;-75
2023/12/22 15:33:44;;;;;;;;;4.00;1.00;;;;;;;;5031635;28;45465;-75
2023/12/22 15:36:09;;;;;;;;;4.00;2.67;;;;;;;;5038104;28;46289;-76
2023/12/22 15:38:34;;;;;;;;;5.00;3.33;;;;;;;;5033822;28;45403;-75
2023/12/22 15:41:00;;;;;;;;;6.67;5.00;;;;;;;;5036790;28;45430;-74
2023/12/22 15:43:26;;;;;;;;;4.00;3.67;;;;;;;;5033580;28;44778;-74
2023/12/22 15:45:51;;;;;;;;;8.00;5.00;;;;;;;;5038630;28;45496;-75
2023/12/22 15:48:16;;;;;;;;;10.33;4.00;;;;;;;;5033201;28;45440;-75
2023/12/22 15:50:41;;;;;;;;;8.67;3.67;;;;;;;;5039052;28;45335;-74
2023/12/22 15:53:06;;;;;;;;;9.33;6.67;;;;;;;;5030772;28;45531;-76
2023/12/22 15:55:32;;;;;;;;;6.33;3.33;;;;;;;;5038462;28;45379;-76
2023/12/22 15:57:57;;;;;;;;;5.00;5.00;;;;;;;;5032477;28;45480;-75
2023/12/22 16:00:25;;;;;;;;;10.00;8.00;;;;;;;;5037843;28;45652;-74
2023/12/22 16:02:50;;;;;;;;;8.00;3.33;;;;;;;;5033466;28;45304;-74
2023/12/22 16:05:15;;;;;;;;;6.33;4.00;;;;;;;;5048260;28;47164;-75
2023/12/22 16:07:41;;;;;;;;;4.00;2.67;;;;;;;;5034734;28;45596;-75
2023/12/22 16:10:07;;;;;;;;;8.00;5.00;;;;;;;;5037512;28;45422;-76
2023/12/22 16:12:34;;;;;;;;;11.00;4.00;;;;;;;;5037023;28;45398;-76
2023/12/22 16:14:59;;;;;;;;;4.33;3.33;;;;;;;;5041918;28;46844;-76
2023/12/22 16:17:24;;;;;;;;;4.67;3.00;;;;;;;;5036889;28;45217;-76
2023/12/22 16:19:49;;;;;;;;;7.00;4.00;;;;;;;;5052837;28;45359;-76
2023/12/22 16:22:15;;;;;;;;;2.00;2.00;;;;;;;;5037118;28;45236;-76
2023/12/22 16:24:40;;;;;;;;;3.00;2.00;;;;;;;;5037507;28;46290;-76
2023/12/22 16:27:05;;;;;;;;;1.33;1.33;;;;;;;;5037181;28;45325;-77
2023/12/22 16:29:30;;;;;;;;;2.67;2.00;;;;;;;;5036008;28;46219;-76
2023/12/22 16:31:55;;;;;;;;;4.33;2.00;;;;;;;;5037646;28;46633;-76
2023/12/22 16:34:20;;;;;;;;;5.00;5.00;;;;;;;;5030194;28;45445;-76
2023/12/22 16:36:46;;;;;;;;;5.00;3.00;;;;;;;;5041111;28;45425;-76
2023/12/22 16:39:11;;;;;;;;;4.67;3.00;;;;;;;;5033387;28;45489;-76
2023/12/22 16:41:40;;;;;;;;;4.00;2.67;;;;;;;;5038895;28;45307;-76
2023/12/22 16:44:05;;;;;;;;;7.00;3.67;;;;;;;;5032592;28;46624;-76
2023/12/22 16:46:30;;;;;;;;;7.00;4.00;;;;;;;;5037124;28;45358;-76
2023/12/22 16:48:55;;;;;;;;;3.67;2.00;;;;;;;;5030560;28;46264;-76
2023/12/22 16:51:20;;;;;;;;;3.33;1.00;;;;;;;;5038352;28;45413;-76
2023/12/22 16:53:46;;;;;;;;;9.25;4.25;;;;;;;;5030499;28;45444;-75
2023/12/22 16:56:11;;;;;;;;;6.00;4.00;;;;;;;;5042335;28;45442;-76
2023/12/22 16:58:36;;;;;;;;;5.00;2.00;;;;;;;;5037352;28;45351;-76
2023/12/22 17:01:02;;;;;;;;;4.00;2.67;;;;;;;;5041831;28;44742;-76
2023/12/22 17:03:28;;;;;;;;;3.00;3.00;;;;;;;;5036575;28;46747;-76
2023/12/22 17:05:53;;;;;;;;;5.25;5.00;;;;;;;;5041704;28;45438;-76
2023/12/22 17:08:18;;;;;;;;;4.00;3.50;;;;;;;;5037047;28;45213;-76
2023/12/22 17:10:44;;;;;;;;;5.00;3.00;;;;;;;;5041540;28;45254;-76
2023/12/22 17:13:09;;;;;;;;;6.33;2.00;;;;;;;;5037222;28;45534;-76
2023/12/22 17:15:35;;;;;;;;;3.00;2.00;;;;;;;;5054819;28;45912;-76
2023/12/22 17:18:00;;;;;;;;;2.33;1.00;;;;;;;;5038266;28;45436;-76
2023/12/22 17:20:25;;;;;;;;;4.00;2.67;;;;;;;;5040864;28;45299;-75
2023/12/22 17:22:51;;;;;;;;;4.00;2.00;;;;;;;;5038894;28;45615;-76
2023/12/22 17:25:17;;;;;;;;;5.33;3.00;;;;;;;;5041023;28;46210;-76
2023/12/22 17:27:43;;;;;;;;;3.00;2.75;;;;;;;;5039808;28;45300;-76
2023/12/22 17:30:09;;;;;;;;;2.50;2.50;;;;;;;;5041180;28;46285;-76
2023/12/22 17:32:34;;;;;;;;;3.50;3.00;;;;;;;;5038219;28;47012;-76
2023/12/22 17:34:59;;;;;;;;;5.00;4.75;;;;;;;;5040202;28;45274;-76
2023/12/22 17:37:24;;;;;;;;;5.00;3.50;;;;;;;;5040150;28;45273;-74
2023/12/22 17:39:50;;;;;;;;;5.00;4.25;;;;;;;;5040978;28;45405;-72
2023/12/22 17:42:15;;;;;;;;;7.00;3.75;;;;;;;;5040887;28;46427;-72
2023/12/22 17:44:40;;;;;;;;;3.00;2.00;;;;;;;;5039001;28;45395;-72
2023/12/22 17:47:05;;;;;;;;;6.00;5.00;;;;;;;;5041159;28;45761;-72
2023/12/22 17:49:31;;;;;;;;;5.25;3.25;;;;;;;;5035162;28;45424;-72
2023/12/22 17:51:57;;;;;;;;;7.00;3.00;;;;;;;;5041006;28;45474;-71
2023/12/22 17:54:22;;;;;;;;;7.75;3.75;;;;;;;;5038226;28;45608;-72
2023/12/22 17:56:47;;;;;;;;;2.00;2.00;;;;;;;;5041333;28;45298;-72
2023/12/22 17:59:12;;;;;;;;;6.75;5.00;;;;;;;;5035905;28;45157;-72
2023/12/22 18:01:41;;;;;;;;;5.00;3.75;;;;;;;;5039699;28;47139;-72
2023/12/22 18:04:06;;;;;;;;;6.00;2.00;;;;;;;;5036631;28;45407;-72
2023/12/22 18:06:31;;;;;;;;;5.75;4.00;;;;;;;;5040718;28;45523;-72
2023/12/22 18:08:57;;;;;;;;;3.25;3.00;;;;;;;;5036327;28;45454;-72
2023/12/22 18:11:22;;;;;;;;;5.50;3.00;;;;;;;;5053419;28;46198;-74
2023/12/22 18:13:52;;;;;;;;;5.25;4.75;;;;;;;;5036491;28;45394;-75
2023/12/22 18:16:17;;;;;;;;;5.00;4.00;;;;;;;;5039032;28;45541;-72
2023/12/22 18:18:42;;;;;;;;;4.25;3.00;;;;;;;;5038543;28;45624;-72
2023/12/22 18:21:08;;;;;;;;;5.50;3.75;;;;;;;;5037639;28;48020;-72
2023/12/22 18:23:33;;;;;;;;;2.67;1.33;;;;;;;;5038504;28;47283;-72
2023/12/22 18:25:59;;;;;;;;;6.25;5.00;;;;;;;;5040629;28;45436;-72
2023/12/22 18:28:24;;;;;;;;;3.75;2.00;;;;;;;;5036478;28;45276;-72
2023/12/22 18:30:49;;;;;;;;;5.00;3.50;;;;;;;;5033034;28;47087;-73
2023/12/22 18:33:14;;;;;;;;;4.00;3.00;;;;;;;;5039392;28;45407;-72
2023/12/22 18:35:39;;;;;;;;;5.00;3.00;;;;;;;;5040426;28;45442;-75
2023/12/22 18:38:05;;;;;;;;;10.75;4.00;;;;;;;;5035847;28;45561;-72
2023/12/22 18:40:30;;;;;;;;;4.50;1.75;;;;;;;;5038686;28;46689;-72
2023/12/22 18:42:55;;;;;;;;;2.75;2.75;;;;;;;;5037373;28;45200;-74
2023/12/22 18:45:20;;;;;;;;;9.00;5.75;;;;;;;;5055966;28;45461;-74
2023/12/22 18:47:46;;;;;;;;;3.00;3.00;;;;;;;;5036532;28;45654;-74
2023/12/22 18:50:11;;;;;;;;;8.00;6.00;;;;;;;;5040203;28;46502;-74
2023/12/22 18:52:36;;;;;;;;;7.33;4.67;;;;;;;;5037404;28;45366;-74
2023/12/22 18:55:01;;;;;;;;;10.50;6.50;;;;;;;;5037630;28;45437;-74
2023/12/22 18:57:27;;;;;;;;;7.00;4.00;;;;;;;;5038044;28;45538;-74
2023/12/22 18:59:55;;;;;;;;;5.50;5.00;;;;;;;;5038383;28;45370;-74
2023/12/22 19:02:21;;;;;;;;;7.75;5.00;;;;;;;;5039310;28;45329;-74
2023/12/22 19:04:47;;;;;;;;;4.00;4.00;;;;;;;;5051068;28;45473;-73
2023/12/22 19:07:12;;;;;;;;;8.00;4.00;;;;;;;;5039334;28;45552;-73
2023/12/22 19:09:38;;;;;;;;;4.25;3.00;;;;;;;;5033442;28;45284;-74
2023/12/22 19:12:04;;;;;;;;;9.00;3.50;;;;;;;;5039248;28;44704;-74
2023/12/22 19:14:29;;;;;;;;;5.00;3.50;;;;;;;;5034926;28;45491;-74
2023/12/22 19:16:54;;;;;;;;;3.25;3.25;;;;;;;;5038992;28;45220;-74
2023/12/22 19:19:19;;;;;;;;;6.25;4.00;;;;;;;;5034900;28;45387;-74
2023/12/22 19:21:44;;;;;;;;;4.50;3.25;;;;;;;;5039499;28;44947;-74
2023/12/22 19:24:10;;;;;;;;;10.75;4.00;;;;;;;;5036837;28;45487;-74
2023/12/22 19:26:36;;;;;;;;;5.50;3.25;;;;;;;;5038034;28;44836;-74
2023/12/22 19:29:02;;;;;;;;;4.75;3.25;;;;;;;;5033612;28;46766;-73
2023/12/22 19:31:28;;;;;;;;;4.25;2.00;;;;;;;;5038061;28;45329;-74
2023/12/22 19:33:54;;;;;;;;;4.25;3.25;;;;;;;;5032407;28;45433;-73
2023/12/22 19:36:21;;;;;;;;;3.00;3.00;;;;;;;;5036543;28;46460;-72
2023/12/22 19:38:46;;;;;;;;;0.67;0.67;;;;;;;;5048754;28;45341;-73
2023/12/22 19:41:11;;;;;;;;;4.33;3.33;;;;;;;;5037221;28;45299;-73
2023/12/22 19:43:36;;;;;;;;;3.00;2.00;;;;;;;;5031137;28;45351;-73
2023/12/22 19:46:01;;;;;;;;;3.00;3.00;;;;;;;;5038987;28;45205;-73
2023/12/22 19:48:27;;;;;;;;;3.25;3.00;;;;;;;;5033393;28;46246;-73
2023/12/22 19:50:52;;;;;;;;;3.67;2.33;;;;;;;;5055568;28;45251;-74
2023/12/22 19:53:17;;;;;;;;;7.50;4.50;;;;;;;;5031673;28;45240;-73
2023/12/22 19:55:43;;;;;;;;;7.00;2.75;;;;;;;;5038963;28;45256;-73
2023/12/22 19:58:08;;;;;;;;;4.75;3.75;;;;;;;;5033509;28;45457;-73
2023/12/22 20:00:33;;;;;;;;;4.50;2.50;;;;;;;;5039486;28;45134;-74
2023/12/22 20:02:58;;;;;;;;;9.75;5.75;;;;;;;;5034771;28;45393;-73
2023/12/22 20:05:23;;;;;;;;;5.75;3.50;;;;;;;;5038666;28;45533;-73
2023/12/22 20:07:49;;;;;;;;;5.75;5.00;;;;;;;;5035207;28;45308;-73
2023/12/22 20:10:14;;;;;;;;;3.25;3.00;;;;;;;;5036310;28;45279;-73
2023/12/22 20:12:42;;;;;;;;;10.50;5.25;;;;;;;;5033985;28;45296;-73
2023/12/22 20:15:09;;;;;;;;;9.75;5.00;;;;;;;;5037408;28;44768;-72
2023/12/22 20:17:34;;;;;;;;;9.75;8.25;;;;;;;;5037137;28;45459;-73
2023/12/22 20:19:59;;;;;;;;;7.50;5.75;;;;;;;;5036591;28;45387;-73
2023/12/22 20:22:25;;;;;;;;;9.50;4.00;;;;;;;;5036864;28;45481;-72
2023/12/22 20:24:50;;;;;;;;;7.00;3.00;;;;;;;;5030137;28;45627;-72
2023/12/22 20:27:16;;;;;;;;;7.25;6.00;;;;;;;;5037687;28;45337;-73
2023/12/22 20:29:41;;;;;;;;;6.50;5.00;;;;;;;;5029885;28;45337;-73
2023/12/22 20:32:06;;;;;;;;;5.00;3.00;;;;;;;;5053894;28;45437;-72
2023/12/22 20:34:32;;;;;;;;;4.00;3.00;;;;;;;;5037918;28;45592;-73
2023/12/22 20:36:58;;;;;;;;;4.25;3.00;;;;;;;;5038595;28;45462;-73
2023/12/22 20:39:23;;;;;;;;;5.50;3.75;;;;;;;;5034621;28;45439;-72
2023/12/22 20:41:48;;;;;;;;;4.00;4.00;;;;;;;;5039193;28;45152;-75
2023/12/22 20:44:14;;;;;;;;;5.50;4.00;;;;;;;;5035314;28;45875;-72
2023/12/22 20:46:39;;;;;;;;;9.75;4.00;;;;;;;;5037463;28;45442;-72
2023/12/22 20:49:04;;;;;;;;;6.50;3.75;;;;;;;;5034342;28;45386;-74
2023/12/22 20:51:32;;;;;;;;;5.00;5.00;;;;;;;;5037472;28;44756;-74
2023/12/22 20:53:57;;;;;;;;;5.50;4.25;;;;;;;;5033809;28;45474;-73
2023/12/22 20:56:25;;;;;;;;;4.00;3.25;;;;;;;;5029226;28;47778;-73
2023/12/22 20:58:50;;;;;;;;;5.50;3.50;;;;;;;;5032458;28;45323;-73
2023/12/22 21:01:15;;;;;;;;;4.50;4.50;;;;;;;;5030944;28;45456;-73
2023/12/22 21:03:42;;;;;;;;;4.75;3.00;;;;;;;;5033084;28;45422;-73
2023/12/22 21:06:07;;;;;;;;;2.00;2.00;;;;;;;;5038028;28;46493;-73
2023/12/22 21:08:33;;;;;;;;;4.50;4.00;;;;;;;;5034448;28;45310;-73
2023/12/22 21:10:58;;;;;;;;;7.00;3.50;;;;;;;;5036420;28;45240;-73
2023/12/22 21:13:23;;;;;;;;;4.50;3.25;;;;;;;;5035443;28;45434;-73
2023/12/22 21:15:49;;;;;;;;;4.75;3.25;;;;;;;;5053563;28;47388;-73
2023/12/22 21:18:14;;;;;;;;;4.25;3.50;;;;;;;;5035813;28;45295;-73
2023/12/22 21:20:40;;;;;;;;;7.00;3.00;;;;;;;;5038189;28;45227;-73
2023/12/22 21:23:05;;;;;;;;;5.25;2.75;;;;;;;;5035220;28;45368;-73
2023/12/22 21:25:30;;;;;;;;;5.00;4.00;;;;;;;;5035742;28;46774;-73
2023/12/22 21:27:56;;;;;;;;;4.25;3.50;;;;;;;;5036320;28;44687;-73
2023/12/22 21:30:21;;;;;;;;;4.75;4.00;;;;;;;;5036415;28;45264;-73
2023/12/22 21:32:46;;;;;;;;;6.50;5.00;;;;;;;;5035901;28;45308;-73
2023/12/22 21:35:11;;;;;;;;;5.25;3.25;;;;;;;;5032667;28;45580;-74
2023/12/22 21:37:36;;;;;;;;;6.25;4.00;;;;;;;;5036072;28;45288;-74
2023/12/22 21:40:04;;;;;;;;;4.50;3.00;;;;;;;;5036102;28;45169;-74
2023/12/22 21:42:30;;;;;;;;;3.50;3.00;;;;;;;;5037156;28;45501;-74
2023/12/22 21:44:55;;;;;;;;;3.75;2.50;;;;;;;;5036103;28;46272;-73
2023/12/22 21:47:20;;;;;;;;;5.00;2.75;;;;;;;;5039459;28;45533;-74
2023/12/22 21:49:46;;;;;;;;;2.75;2.25;;;;;;;;5035218;28;45422;-74
2023/12/22 21:52:11;;;;;;;;;5.75;3.25;;;;;;;;5040845;28;45279;-73
2023/12/22 21:54:36;;;;;;;;;3.50;2.00;;;;;;;;5034923;28;45610;-74
2023/12/22 21:57:03;;;;;;;;;3.50;2.25;;;;;;;;5041596;28;45290;-73